This is the latest recevied weather packets stored in our database for station/object WA4IKQ. If no packets are shown the sender has not sent any weather packets the latest 10 day(s).
| Time | Temp. | Humidity | Pressure | Rain* | Wind** | Luminosity | Snow |
|---|---|---|---|---|---|---|---|
| 1777654305 | 30.56° C | 54% | 1011.9 hPa | 0 mm | 1.79 m/s, 235° | - | - |
| 1777654096 | 30.56° C | 54% | 1011.9 hPa | 0 mm | 1.79 m/s, 235° | - | - |
| 1777654004 | 30.56° C | 54% | 1011.9 hPa | 0 mm | 2.68 m/s, 229° | - | - |
| 1777653805 | 30.56° C | 54% | 1011.9 hPa | 0 mm | 2.68 m/s, 229° | - | - |
| 1777653583 | 30° C | 54% | 1012.1 hPa | 0 mm | 1.79 m/s, 149° | - | - |
| 1777653496 | 30° C | 54% | 1012.1 hPa | 0 mm | 1.79 m/s, 149° | - | - |
| 1777653310 | 30° C | 54% | 1012.2 hPa | 0 mm | 1.79 m/s, 162° | - | - |
| 1777653196 | 30° C | 54% | 1012.2 hPa | 0 mm | 1.79 m/s, 162° | - | - |
| 1777652637 | 30° C | 53% | 1012.3 hPa | 0 mm | 3.13 m/s, 212° | - | - |
| 1777652595 | 30° C | 53% | 1012.3 hPa | 0 mm | 3.13 m/s, 212° | - | - |
| 1777652045 | 30° C | 53% | 1012.4 hPa | 0 mm | 4.92 m/s, 238° | - | - |
| 1777651995 | 30° C | 53% | 1012.4 hPa | 0 mm | 4.92 m/s, 238° | - | - |
| 1777651865 | 30° C | 53% | 1012.3 hPa | 0 mm | 0.45 m/s, 181° | - | - |
| 1777651701 | 30° C | 53% | 1012.3 hPa | 0 mm | 0.45 m/s, 181° | - | - |
| 1777651396 | 30° C | 54% | 1012.3 hPa | 0 mm | 2.24 m/s, 250° | - | - |
| 1777650656 | 29.44° C | 56% | 1012.2 hPa | 0 mm | 2.68 m/s, 240° | - | - |
| 1777650322 | 29.44° C | 55% | 1012.3 hPa | 0 mm | 0.45 m/s, 194° | - | - |
| 1777650194 | 29.44° C | 55% | 1012.3 hPa | 0 mm | 0.45 m/s, 194° | - | - |
| 1777649775 | 29.44° C | 57% | 1012.4 hPa | 0 mm | 2.68 m/s, 236° | - | - |
| 1777649595 | 29.44° C | 57% | 1012.4 hPa | 0 mm | 2.68 m/s, 236° | - | - |
| 1777649133 | 28.89° C | 57% | 1012.4 hPa | 0 mm | 1.79 m/s, 259° | - | - |
| 1777648992 | 28.89° C | 57% | 1012.4 hPa | 0 mm | 1.79 m/s, 259° | - | - |
| 1777648393 | 28.89° C | 58% | 1012.4 hPa | 0 mm | 2.24 m/s, 176° | - | - |
| 1777648006 | 28.89° C | 59% | 1012.6 hPa | 0 mm | 2.24 m/s, 252° | - | - |
| 1777647794 | 28.89° C | 59% | 1012.6 hPa | 0 mm | 2.24 m/s, 252° | - | - |
* Rain latest hour (hover to see other rain measurements)
** Current wind speed in m/s (hover to see current wind gust speed)